Orbital elements of SL-14 DEB
| Launched | 14 August 1991 |
| Flight ended | – |
| Launch site | Plesetsk Missile and Space Complex, Russia |
| Owner | Commonwealth of Independent States (former USSR) |
| NORAD ID | 45315 |
| Date fetched |
Epoch osculation |
Inc. [°] |
Ecc. | RA asc node [hr] |
Arg Peri. [°] |
Mean anom [°] |
Mean motion [rev/day] |
Abs. mag |
| Date fetched |
Epoch osculation |
Inc. [°] |
Ecc. | RA asc node [hr] |
Arg Peri. [°] |
Mean anom [°] |
Mean motion [rev/day] |
Abs. mag |
| 2026 May 01 17:56 | 2026 Apr 30 14:19:26 | 82.5620 | 0.00229 | 12.0387 | 314.8027 | 45.1228 | 13.15538 | – |
| 2026 Apr 30 17:56 | 2026 Apr 30 14:19:26 | 82.5620 | 0.00229 | 12.0387 | 314.8027 | 45.1228 | 13.15538 | – |
| 2026 Apr 29 17:57 | 2026 Apr 24 03:10:22 | 82.5629 | 0.00231 | 12.3420 | 332.1371 | 45.1228 | 13.15538 | – |
| 2026 Apr 28 17:56 | 2026 Apr 24 03:10:22 | 82.5629 | 0.00231 | 12.3420 | 332.1371 | 45.1228 | 13.15538 | – |
| 2026 Apr 27 17:58 | 2026 Apr 24 03:10:22 | 82.5629 | 0.00231 | 12.3420 | 332.1371 | 45.1228 | 13.15538 | – |
| 2026 Apr 26 17:58 | 2026 Apr 24 03:10:22 | 82.5629 | 0.00231 | 12.3420 | 332.1371 | 45.1228 | 13.15538 | – |
| 2026 Apr 25 17:58 | 2026 Apr 24 03:10:22 | 82.5629 | 0.00231 | 12.3420 | 332.1371 | 45.1228 | 13.15538 | – |
| 2026 Apr 24 17:59 | 2026 Apr 24 03:10:22 | 82.5629 | 0.00231 | 12.3420 | 332.1371 | 45.1228 | 13.15538 | – |
| 2026 Apr 23 17:57 | 2026 Apr 19 04:31:38 | 82.5629 | 0.00233 | 12.5740 | 345.2985 | 45.1228 | 13.15538 | – |
| 2026 Apr 22 17:57 | 2026 Apr 19 04:31:38 | 82.5629 | 0.00233 | 12.5740 | 345.2985 | 45.1228 | 13.15538 | – |
| 2026 Apr 21 17:57 | 2026 Apr 19 04:31:38 | 82.5629 | 0.00233 | 12.5740 | 345.2985 | 45.1228 | 13.15538 | – |
| 2026 Apr 20 17:57 | 2026 Apr 19 04:31:38 | 82.5629 | 0.00233 | 12.5740 | 345.2985 | 45.1228 | 13.15538 | – |
| 2026 Apr 19 17:58 | 2026 Apr 19 04:31:38 | 82.5629 | 0.00233 | 12.5740 | 345.2985 | 45.1228 | 13.15538 | – |
| 2026 Apr 18 17:56 | 2026 Apr 12 22:51:05 | 82.5633 | 0.00236 | 12.8666 | 1.8423 | 45.1228 | 13.15538 | – |
| 2026 Apr 16 17:57 | 2026 Apr 12 22:51:05 | 82.5633 | 0.00236 | 12.8666 | 1.8423 | 45.1228 | 13.15538 | – |
| 2026 Apr 14 17:57 | 2026 Apr 12 22:51:05 | 82.5633 | 0.00236 | 12.8666 | 1.8423 | 45.1228 | 13.15538 | – |
| 2026 Apr 13 17:57 | 2026 Apr 12 22:51:05 | 82.5633 | 0.00236 | 12.8666 | 1.8423 | 45.1228 | 13.15538 | – |
| 2026 Apr 12 17:57 | 2026 Apr 08 05:40:53 | 82.5633 | 0.00239 | 13.0879 | 14.2088 | 45.1228 | 13.15538 | – |
| 2026 Apr 11 17:57 | 2026 Apr 08 05:40:53 | 82.5633 | 0.00239 | 13.0879 | 14.2088 | 45.1228 | 13.15538 | – |
| 2026 Apr 10 17:58 | 2026 Apr 08 05:40:53 | 82.5633 | 0.00239 | 13.0879 | 14.2088 | 45.1228 | 13.15538 | – |
| 2026 Apr 09 18:01 | 2026 Apr 08 05:40:53 | 82.5633 | 0.00239 | 13.0879 | 14.2088 | 45.1228 | 13.15538 | – |
| 2026 Apr 08 17:57 | 2026 Apr 08 05:40:53 | 82.5633 | 0.00239 | 13.0879 | 14.2088 | 45.1228 | 13.15538 | – |
| 2026 Apr 07 17:57 | 2026 Apr 02 07:18:23 | 82.5633 | 0.00244 | 13.3663 | 29.5737 | 45.1228 | 13.15538 | – |
| 2026 Apr 06 17:57 | 2026 Apr 02 07:18:23 | 82.5633 | 0.00244 | 13.3663 | 29.5737 | 45.1228 | 13.15538 | – |
| 2026 Apr 05 17:56 | 2026 Apr 02 07:18:23 | 82.5633 | 0.00244 | 13.3663 | 29.5737 | 45.1228 | 13.15538 | – |
| 2026 Apr 04 17:57 | 2026 Apr 02 07:18:23 | 82.5633 | 0.00244 | 13.3663 | 29.5737 | 45.1228 | 13.15538 | – |